createdAt,value
2023-04-05T00:01:09.240Z,0.10
2023-04-05T00:05:12.601Z,0.10
2023-04-05T00:09:14.278Z,0.00
2023-04-05T00:13:16.482Z,0.00
2023-04-05T00:17:18.212Z,0.00
2023-04-05T00:21:23.987Z,0.00
2023-04-05T00:25:26.176Z,-0.10
2023-04-05T00:29:28.183Z,-0.10
2023-04-05T00:33:29.880Z,-0.20
2023-04-05T00:37:31.704Z,-0.20
2023-04-05T00:41:33.416Z,-0.20
2023-04-05T00:45:35.374Z,-0.20
2023-04-05T00:49:38.593Z,-0.10
2023-04-05T00:53:40.865Z,-0.10
2023-04-05T00:57:45.134Z,-0.20
2023-04-05T01:01:54.977Z,-0.20
2023-04-05T01:06:24.848Z,-0.10
2023-04-05T01:10:34.848Z,-0.10
2023-04-05T01:14:50.148Z,-0.10
2023-04-05T01:18:56.512Z,-0.20
2023-04-05T01:23:31.571Z,-0.20
2023-04-05T01:27:48.338Z,-0.20
2023-04-05T01:32:20.043Z,-0.20
2023-04-05T01:36:33.876Z,-0.20
2023-04-05T01:40:36.818Z,-0.20
2023-04-05T01:44:38.693Z,-0.30
2023-04-05T01:48:40.368Z,-0.30
2023-04-05T01:52:42.063Z,-0.30
2023-04-05T01:56:43.837Z,-0.30
2023-04-05T02:00:45.583Z,-0.30
2023-04-05T02:04:47.368Z,-0.30
2023-04-05T02:08:49.141Z,-0.30
2023-04-05T02:12:51.246Z,-0.40
2023-04-05T02:16:56.525Z,-0.40
2023-04-05T02:21:03.097Z,-0.40
2023-04-05T02:25:05.391Z,-0.40
2023-04-05T02:29:07.172Z,-0.50
2023-04-05T02:33:10.378Z,-0.50
2023-04-05T02:37:12.086Z,-0.50
2023-04-05T02:41:13.832Z,-0.60
2023-04-05T02:45:15.616Z,-0.60
2023-04-05T02:49:17.484Z,-0.60
2023-04-05T02:53:19.255Z,-0.60
2023-04-05T02:57:21.292Z,-0.70
2023-04-05T03:01:23.835Z,-0.70
2023-04-05T03:05:25.822Z,-0.70
2023-04-05T03:09:27.622Z,-0.70
2023-04-05T03:13:29.360Z,-0.80
2023-04-05T03:17:31.171Z,-0.80
2023-04-05T03:21:33.897Z,-0.80
2023-04-05T03:25:37.130Z,-0.90
2023-04-05T03:29:38.852Z,-0.90
2023-04-05T03:33:40.573Z,-0.90
2023-04-05T03:37:42.231Z,-0.90
2023-04-05T03:41:43.946Z,-1.00
2023-04-05T03:45:45.851Z,-1.00
2023-04-05T03:49:47.628Z,-1.00
2023-04-05T03:53:50.647Z,-1.00
2023-04-05T03:57:53.705Z,-1.10
2023-04-05T04:01:55.857Z,-1.00
2023-04-05T04:05:57.785Z,-1.10
2023-04-05T04:09:59.535Z,-1.10
2023-04-05T04:14:01.686Z,-1.10
2023-04-05T04:18:03.696Z,-1.10
2023-04-05T04:22:07.430Z,-1.20
2023-04-05T04:26:09.560Z,-1.10
2023-04-05T04:30:13.458Z,-1.20
2023-04-05T04:34:18.474Z,-1.20
2023-04-05T04:38:20.554Z,-1.20
2023-04-05T04:42:22.886Z,-1.20
2023-04-05T04:46:27.066Z,-1.20
2023-04-05T04:50:28.767Z,-1.20
2023-04-05T04:54:30.521Z,-1.30
2023-04-05T04:58:32.405Z,-1.30
2023-04-05T05:02:34.292Z,-1.30
2023-04-05T05:06:36.083Z,-1.30
2023-04-05T05:10:37.855Z,-1.40
2023-04-05T05:14:39.768Z,-1.40
2023-04-05T05:18:43.218Z,-1.40
2023-04-05T05:22:46.445Z,-1.30
2023-04-05T05:26:48.154Z,-1.30
2023-04-05T05:30:49.912Z,-1.30
2023-04-05T05:34:51.694Z,-1.30
2023-04-05T05:38:54.270Z,-1.30
2023-04-05T05:42:56.116Z,-1.30
2023-04-05T05:46:58.728Z,-1.30
2023-04-05T05:51:01.951Z,-1.20
2023-04-05T05:55:04.228Z,-1.10
2023-04-05T05:59:06.708Z,-1.10
2023-04-05T06:03:09.799Z,-1.00
2023-04-05T06:07:12.326Z,-1.00
2023-04-05T06:11:21.605Z,-1.00
2023-04-05T06:15:23.332Z,-0.80
2023-04-05T06:19:25.350Z,-0.70
2023-04-05T06:23:27.048Z,-0.70
2023-04-05T06:27:28.775Z,-0.60
2023-04-05T06:31:35.572Z,-0.50
2023-04-05T06:35:37.355Z,-0.50
2023-04-05T06:39:39.169Z,-0.40
2023-04-05T06:43:40.861Z,-0.20
2023-04-05T06:47:42.686Z,-0.10
2023-04-05T06:51:44.392Z,-0.10
2023-04-05T06:55:50.851Z,0.00
2023-04-05T06:59:53.688Z,0.20
2023-04-05T07:03:55.705Z,0.30
2023-04-05T07:07:57.506Z,0.50
2023-04-05T07:12:01.570Z,0.70
2023-04-05T07:16:03.530Z,0.90
2023-04-05T07:20:09.531Z,1.10
2023-04-05T07:24:11.239Z,1.30
2023-04-05T07:28:12.966Z,1.60
2023-04-05T07:32:14.956Z,1.90
2023-04-05T07:36:16.799Z,2.30
2023-04-05T07:40:18.610Z,2.40
2023-04-05T07:44:20.586Z,2.80
2023-04-05T07:48:22.284Z,3.20
2023-04-05T07:52:23.927Z,3.90
2023-04-05T07:56:25.598Z,4.60
2023-04-05T08:00:27.506Z,5.00
2023-04-05T08:04:29.265Z,6.00
2023-04-05T08:08:30.953Z,6.80
2023-04-05T08:12:33.843Z,7.50
2023-04-05T08:16:35.770Z,8.60
2023-04-05T08:20:39.671Z,9.00
2023-04-05T08:24:41.643Z,9.40
2023-04-05T08:28:43.537Z,9.30
2023-04-05T08:32:45.296Z,9.90
2023-04-05T08:36:48.723Z,10.20
2023-04-05T08:40:50.667Z,9.80
2023-04-05T08:44:52.840Z,9.90
2023-04-05T08:48:54.548Z,10.20
2023-04-05T08:52:56.305Z,10.60
2023-04-05T08:56:59.788Z,10.80
2023-04-05T09:01:03.918Z,10.90
2023-04-05T09:05:15.807Z,10.80
2023-04-05T09:09:28.668Z,10.90
2023-04-05T09:13:31.418Z,11.00
2023-04-05T09:17:34.444Z,12.10
2023-04-05T09:22:05.337Z,12.30
2023-04-05T09:26:21.456Z,13.90
2023-04-05T09:30:24.501Z,14.40
2023-04-05T09:34:26.285Z,14.20
2023-04-05T09:38:48.229Z,13.00
2023-04-05T09:42:51.174Z,12.30
2023-04-05T09:46:52.902Z,13.00
2023-04-05T09:51:12.781Z,14.50
2023-04-05T09:55:27.044Z,15.90
2023-04-05T09:59:29.133Z,15.80
2023-04-05T10:03:31.130Z,16.40
2023-04-05T10:07:33.690Z,17.50
2023-04-05T10:11:37.038Z,18.60
2023-04-05T10:15:40.264Z,19.50
2023-04-05T10:20:14.052Z,19.00
2023-04-05T10:24:36.638Z,19.20
2023-04-05T10:28:45.884Z,20.30
2023-04-05T10:33:18.829Z,19.20
2023-04-05T10:37:36.647Z,18.90
2023-04-05T10:41:47.095Z,18.60
2023-04-05T10:45:52.201Z,20.10
2023-04-05T10:49:56.924Z,20.20
2023-04-05T10:54:00.236Z,20.20
2023-04-05T10:58:02.705Z,19.90
2023-04-05T11:02:04.795Z,20.10
2023-04-05T11:06:29.398Z,20.10
2023-04-05T11:10:33.657Z,20.20
2023-04-05T11:14:41.707Z,20.60
2023-04-05T11:18:48.194Z,20.00
2023-04-05T11:22:54.448Z,19.30
2023-04-05T11:26:57.344Z,18.30
2023-04-05T11:31:16.524Z,18.00
2023-04-05T11:35:24.711Z,17.00
2023-04-05T11:39:27.329Z,17.00
2023-04-05T11:43:30.233Z,17.50
2023-04-05T11:47:31.973Z,18.60
2023-04-05T11:51:34.038Z,18.20
2023-04-05T11:55:36.010Z,18.20
2023-04-05T11:59:37.691Z,18.80
2023-04-05T12:03:39.411Z,19.00
2023-04-05T12:07:41.228Z,19.40
2023-04-05T12:11:42.928Z,19.20
2023-04-05T12:15:44.651Z,19.10
2023-04-05T12:19:46.456Z,19.90
2023-04-05T12:23:49.346Z,19.90
2023-04-05T12:27:51.103Z,20.70
2023-04-05T12:31:55.117Z,20.00
2023-04-05T12:35:57.505Z,19.50
2023-04-05T12:40:03.197Z,20.00
2023-04-05T12:44:28.301Z,19.60
2023-04-05T12:48:30.135Z,18.90
2023-04-05T12:52:31.910Z,19.80
2023-04-05T12:56:33.708Z,20.90
2023-04-05T13:00:35.580Z,21.50
2023-04-05T13:04:37.291Z,19.80
2023-04-05T13:08:39.017Z,19.60
2023-04-05T13:12:40.775Z,20.30
2023-04-05T13:16:42.724Z,20.50
2023-04-05T13:20:44.991Z,19.80
2023-04-05T13:24:46.676Z,18.90
2023-04-05T13:28:48.428Z,19.80
2023-04-05T13:32:50.234Z,19.60
2023-04-05T13:36:51.929Z,19.50
2023-04-05T13:40:53.690Z,19.60
2023-04-05T13:44:55.691Z,20.50
2023-04-05T13:48:57.386Z,20.00
2023-04-05T13:52:59.298Z,19.20
2023-04-05T13:57:01.252Z,19.20
2023-04-05T14:01:03.637Z,18.30
2023-04-05T14:05:06.840Z,18.40
2023-04-05T14:09:09.005Z,19.50
2023-04-05T14:13:12.822Z,20.50
2023-04-05T14:17:14.568Z,20.50
2023-04-05T14:21:16.498Z,19.00
2023-04-05T14:25:18.255Z,19.40
2023-04-05T14:29:20.315Z,20.30
2023-04-05T14:33:23.824Z,19.80
2023-04-05T14:37:25.745Z,20.30
2023-04-05T14:41:27.569Z,19.40
2023-04-05T14:45:29.572Z,18.20
2023-04-05T14:49:31.426Z,18.50
2023-04-05T14:53:33.280Z,17.70
2023-04-05T14:57:35.256Z,16.10
2023-04-05T15:01:37.742Z,15.50
2023-04-05T15:05:39.521Z,14.50
2023-04-05T15:09:41.269Z,14.30
2023-04-05T15:13:43.012Z,13.90
2023-04-05T15:17:44.727Z,13.50
2023-04-05T15:21:46.611Z,13.30
2023-04-05T15:25:49.036Z,13.20
2023-04-05T15:29:50.844Z,12.90
2023-04-05T15:33:52.634Z,12.70
2023-04-05T15:37:54.472Z,12.80
2023-04-05T15:41:59.826Z,12.80
2023-04-05T15:46:01.631Z,12.40
2023-04-05T15:50:03.620Z,12.10
2023-04-05T15:54:05.602Z,12.10
2023-04-05T15:58:07.578Z,12.20
2023-04-05T16:02:09.709Z,12.20
2023-04-05T16:06:11.556Z,12.00
2023-04-05T16:10:13.432Z,12.10
2023-04-05T16:14:15.377Z,11.90
2023-04-05T16:18:19.489Z,11.70
2023-04-05T16:22:21.364Z,11.80
2023-04-05T16:26:23.405Z,11.60
2023-04-05T16:30:26.092Z,11.50
2023-04-05T16:34:28.002Z,11.50
2023-04-05T16:38:29.822Z,11.10
2023-04-05T16:42:31.645Z,11.20
2023-04-05T16:46:33.592Z,10.90
2023-04-05T16:50:35.579Z,11.00
2023-04-05T16:54:37.305Z,11.10
2023-04-05T16:58:39.051Z,10.90
2023-04-05T17:02:40.911Z,10.90
2023-04-05T17:06:42.829Z,10.70
2023-04-05T17:10:44.563Z,10.40
2023-04-05T17:14:46.342Z,10.30
2023-04-05T17:18:48.115Z,10.20
2023-04-05T17:22:50.697Z,10.30
2023-04-05T17:26:52.470Z,9.90
2023-04-05T17:30:55.297Z,9.80
2023-04-05T17:34:57.133Z,9.80
2023-04-05T17:38:58.891Z,9.60
2023-04-05T17:43:00.759Z,9.50
2023-04-05T17:47:09.232Z,9.50
2023-04-05T17:51:11.769Z,9.30
2023-04-05T17:55:13.673Z,9.00
2023-04-05T17:59:15.725Z,8.80
2023-04-05T18:03:17.932Z,8.50
2023-04-05T18:07:19.932Z,8.30
2023-04-05T18:11:21.657Z,8.00
2023-04-05T18:15:23.444Z,7.80
2023-04-05T18:19:25.206Z,7.60
2023-04-05T18:23:27.237Z,7.30
2023-04-05T18:27:30.850Z,7.10
2023-04-05T18:31:32.600Z,6.90
2023-04-05T18:35:34.574Z,6.70
2023-04-05T18:39:36.390Z,6.50
2023-04-05T18:43:38.491Z,6.30
2023-04-05T18:47:40.330Z,6.10
2023-04-05T18:51:42.118Z,5.80
2023-04-05T18:55:43.888Z,5.70
2023-04-05T18:59:45.714Z,5.50
2023-04-05T19:03:48.761Z,5.30
2023-04-05T19:07:50.762Z,5.20
2023-04-05T19:11:53.442Z,5.00
2023-04-05T19:15:55.421Z,4.90
2023-04-05T19:19:57.222Z,4.70
2023-04-05T19:23:58.976Z,4.60
2023-04-05T19:28:01.535Z,4.30
2023-04-05T19:32:03.330Z,4.20
2023-04-05T19:36:05.502Z,4.00
2023-04-05T19:40:07.976Z,3.90
2023-04-05T19:44:13.950Z,3.90
2023-04-05T19:48:35.474Z,3.70
2023-04-05T19:52:47.902Z,3.50
2023-04-05T19:56:49.684Z,3.40
2023-04-05T20:00:55.204Z,3.40
2023-04-05T20:04:56.936Z,3.30
2023-04-05T20:09:07.379Z,3.20
2023-04-05T20:13:09.451Z,3.10
2023-04-05T20:17:13.118Z,3.10
2023-04-05T20:21:15.776Z,3.00
2023-04-05T20:25:38.130Z,2.90
2023-04-05T20:29:39.997Z,2.80
2023-04-05T20:33:46.282Z,2.80
2023-04-05T20:37:49.631Z,2.70
2023-04-05T20:41:51.466Z,2.50
2023-04-05T20:45:53.804Z,2.50
2023-04-05T20:49:55.886Z,2.40
2023-04-05T20:53:57.652Z,2.30
2023-04-05T20:57:59.414Z,2.20
2023-04-05T21:02:01.252Z,2.20
2023-04-05T21:06:04.869Z,2.10
2023-04-05T21:10:07.055Z,2.00
2023-04-05T21:14:09.357Z,2.00
2023-04-05T21:18:11.200Z,1.90
2023-04-05T21:22:12.912Z,1.90
2023-04-05T21:26:14.610Z,1.90
2023-04-05T21:30:16.667Z,1.90
2023-04-05T21:34:18.394Z,1.90
2023-04-05T21:38:20.225Z,1.80
2023-04-05T21:42:22.681Z,1.80
2023-04-05T21:46:24.428Z,1.70
2023-04-05T21:50:27.188Z,1.70
2023-04-05T21:54:28.952Z,1.70
2023-04-05T21:58:30.986Z,1.60
2023-04-05T22:02:32.734Z,1.50
2023-04-05T22:06:34.657Z,1.40
2023-04-05T22:10:36.508Z,1.30
2023-04-05T22:14:38.280Z,1.30
2023-04-05T22:18:39.998Z,1.20
2023-04-05T22:22:41.794Z,1.20
2023-04-05T22:26:43.608Z,1.10
2023-04-05T22:30:45.813Z,1.00
2023-04-05T22:34:47.632Z,1.00
2023-04-05T22:38:50.659Z,1.00
2023-04-05T22:42:54.188Z,1.00
2023-04-05T22:46:55.961Z,0.90
2023-04-05T22:50:57.700Z,0.90
2023-04-05T22:55:01.033Z,0.90
2023-04-05T22:59:02.813Z,0.80
2023-04-05T23:03:04.827Z,0.80
2023-04-05T23:07:06.670Z,0.80
2023-04-05T23:11:08.473Z,0.70
2023-04-05T23:15:11.028Z,0.70
2023-04-05T23:19:12.822Z,0.70
2023-04-05T23:23:15.415Z,0.60
2023-04-05T23:27:17.202Z,0.60
2023-04-05T23:31:18.972Z,0.60
2023-04-05T23:35:21.235Z,0.50
2023-04-05T23:39:22.946Z,0.50
2023-04-05T23:43:24.705Z,0.50
2023-04-05T23:47:26.483Z,0.60
2023-04-05T23:51:28.398Z,0.50
2023-04-05T23:55:31.875Z,0.40
2023-04-05T23:59:34.554Z,0.40
